createdAt,value
2023-09-01T00:00:30.574Z,50.77
2023-09-01T00:02:32.360Z,50.61
2023-09-01T00:04:34.806Z,50.63
2023-09-01T00:06:36.679Z,50.97
2023-09-01T00:08:38.585Z,51.04
2023-09-01T00:10:40.824Z,51.02
2023-09-01T00:12:42.784Z,51.00
2023-09-01T00:14:44.522Z,51.35
2023-09-01T00:16:46.480Z,51.48
2023-09-01T00:18:48.167Z,51.58
2023-09-01T00:20:49.868Z,51.89
2023-09-01T00:22:51.539Z,51.87
2023-09-01T00:24:53.215Z,52.18
2023-09-01T00:26:55.028Z,52.22
2023-09-01T00:28:56.929Z,52.22
2023-09-01T00:30:59.996Z,52.35
2023-09-01T00:33:01.733Z,52.75
2023-09-01T00:35:04.793Z,52.85
2023-09-01T00:37:06.433Z,53.93
2023-09-01T00:39:08.652Z,53.73
2023-09-01T00:41:10.372Z,53.92
2023-09-01T00:43:12.039Z,53.53
2023-09-01T00:45:13.768Z,53.31
2023-09-01T00:47:16.128Z,53.24
2023-09-01T00:49:19.379Z,53.83
2023-09-01T00:51:21.145Z,54.07
2023-09-01T00:53:23.035Z,54.77
2023-09-01T00:55:24.713Z,55.27
2023-09-01T00:57:26.344Z,55.28
2023-09-01T00:59:29.418Z,55.08
2023-09-01T01:01:31.312Z,54.75
2023-09-01T01:03:34.806Z,54.37
2023-09-01T01:06:01.028Z,54.23
2023-09-01T01:08:14.263Z,53.82
2023-09-01T01:10:21.773Z,53.96
2023-09-01T01:12:31.320Z,53.71
2023-09-01T01:14:42.181Z,53.90
2023-09-01T01:16:44.673Z,53.70
2023-09-01T01:18:47.569Z,53.79
2023-09-01T01:20:53.549Z,53.79
2023-09-01T01:23:05.581Z,53.93
2023-09-01T01:25:11.348Z,54.32
2023-09-01T01:27:13.027Z,54.62
2023-09-01T01:29:14.693Z,55.03
2023-09-01T01:31:16.486Z,55.75
2023-09-01T01:33:23.788Z,57.53
2023-09-01T01:35:30.169Z,59.24
2023-09-01T01:37:39.821Z,59.50
2023-09-01T01:39:43.957Z,60.39
2023-09-01T01:41:57.113Z,60.55
2023-09-01T01:44:02.398Z,60.76
2023-09-01T01:46:05.389Z,60.59
2023-09-01T01:48:07.206Z,60.92
2023-09-01T01:50:09.455Z,60.73
2023-09-01T01:52:11.123Z,61.13
2023-09-01T01:54:12.839Z,61.28
2023-09-01T01:56:16.592Z,61.36
2023-09-01T01:58:18.148Z,61.37
2023-09-01T02:00:20.422Z,61.34
2023-09-01T02:02:22.199Z,61.01
2023-09-01T02:04:24.993Z,61.22
2023-09-01T02:06:26.603Z,62.88
2023-09-01T02:08:29.305Z,63.91
2023-09-01T02:10:31.676Z,64.76
2023-09-01T02:12:35.016Z,64.25
2023-09-01T02:14:37.354Z,64.34
2023-09-01T02:16:40.695Z,63.93
2023-09-01T02:18:43.047Z,63.93
2023-09-01T02:20:44.806Z,63.85
2023-09-01T02:22:47.028Z,63.49
2023-09-01T02:24:48.676Z,63.09
2023-09-01T02:26:51.815Z,63.34
2023-09-01T02:28:53.507Z,63.80
2023-09-01T02:30:55.259Z,64.03
2023-09-01T02:32:57.438Z,64.08
2023-09-01T02:34:59.185Z,63.93
2023-09-01T02:37:01.064Z,64.42
2023-09-01T02:39:06.041Z,64.34
2023-09-01T02:41:07.913Z,64.21
2023-09-01T02:43:09.585Z,63.74
2023-09-01T02:45:15.173Z,62.66
2023-09-01T02:47:18.325Z,62.43
2023-09-01T02:49:19.945Z,62.04
2023-09-01T02:51:21.840Z,61.64
2023-09-01T02:53:23.624Z,61.25
2023-09-01T02:55:25.323Z,61.32
2023-09-01T02:57:27.849Z,61.49
2023-09-01T02:59:29.659Z,61.27
2023-09-01T03:01:32.085Z,61.22
2023-09-01T03:03:33.953Z,61.21
2023-09-01T03:05:35.820Z,61.39
2023-09-01T03:07:40.004Z,61.47
2023-09-01T03:09:41.733Z,62.00
2023-09-01T03:11:43.466Z,62.40
2023-09-01T03:13:45.145Z,61.73
2023-09-01T03:15:46.961Z,61.93
2023-09-01T03:17:48.679Z,61.61
2023-09-01T03:19:52.988Z,60.92
2023-09-01T03:21:54.605Z,60.44
2023-09-01T03:23:56.908Z,60.07
2023-09-01T03:25:58.620Z,59.85
2023-09-01T03:28:00.279Z,59.74
2023-09-01T03:30:01.962Z,59.64
2023-09-01T03:32:04.394Z,59.70
2023-09-01T03:34:08.430Z,59.28
2023-09-01T03:36:10.348Z,59.29
2023-09-01T03:38:12.380Z,59.13
2023-09-01T03:40:15.611Z,59.00
2023-09-01T03:42:17.958Z,58.92
2023-09-01T03:44:19.618Z,58.77
2023-09-01T03:46:21.352Z,58.75
2023-09-01T03:48:23.653Z,59.18
2023-09-01T03:50:25.313Z,59.00
2023-09-01T03:52:28.002Z,59.06
2023-09-01T03:54:29.657Z,58.82
2023-09-01T03:56:31.442Z,58.93
2023-09-01T03:58:33.216Z,59.41
2023-09-01T04:00:34.914Z,59.51
2023-09-01T04:02:36.771Z,60.06
2023-09-01T04:04:38.618Z,60.42
2023-09-01T04:06:41.791Z,60.57
2023-09-01T04:08:44.096Z,60.15
2023-09-01T04:10:47.205Z,60.20
2023-09-01T04:12:48.889Z,60.00
2023-09-01T04:14:50.618Z,59.67
2023-09-01T04:16:52.364Z,60.00
2023-09-01T04:18:55.525Z,60.11
2023-09-01T04:21:06.540Z,59.85
2023-09-01T04:23:08.277Z,60.04
2023-09-01T04:25:09.891Z,60.09
2023-09-01T04:27:11.559Z,60.10
2023-09-01T04:29:13.340Z,60.04
2023-09-01T04:31:22.936Z,59.90
2023-09-01T04:33:24.562Z,59.92
2023-09-01T04:35:26.380Z,59.79
2023-09-01T04:37:28.088Z,59.93
2023-09-01T04:39:29.896Z,59.84
2023-09-01T04:41:33.322Z,59.76
2023-09-01T04:43:35.161Z,59.03
2023-09-01T04:45:37.272Z,59.58
2023-09-01T04:47:39.095Z,60.18
2023-09-01T04:49:40.750Z,60.73
2023-09-01T04:51:42.432Z,61.19
2023-09-01T04:53:44.154Z,61.23
2023-09-01T04:55:47.092Z,61.09
2023-09-01T04:57:49.674Z,61.36
2023-09-01T04:59:51.859Z,61.53
2023-09-01T05:01:53.499Z,61.29
2023-09-01T05:03:55.187Z,61.33
2023-09-01T05:05:58.635Z,61.64
2023-09-01T05:08:00.277Z,61.81
2023-09-01T05:10:02.058Z,61.55
2023-09-01T05:12:03.985Z,62.29
2023-09-01T05:14:05.895Z,61.83
2023-09-01T05:16:11.818Z,62.04
2023-09-01T05:18:13.809Z,61.23
2023-09-01T05:20:15.775Z,60.44
2023-09-01T05:22:17.606Z,59.84
2023-09-01T05:24:19.289Z,59.00
2023-09-01T05:26:21.291Z,58.48
2023-09-01T05:28:23.019Z,58.80
2023-09-01T05:30:24.761Z,59.38
2023-09-01T05:32:26.469Z,60.42
2023-09-01T05:34:28.250Z,61.11
2023-09-01T05:36:29.945Z,61.26
2023-09-01T05:38:31.605Z,61.43
2023-09-01T05:40:33.397Z,61.24
2023-09-01T05:42:35.073Z,60.83
2023-09-01T05:44:38.522Z,60.07
2023-09-01T05:46:40.353Z,60.87
2023-09-01T05:48:42.131Z,61.68
2023-09-01T05:50:45.084Z,61.50
2023-09-01T05:52:46.835Z,61.00
2023-09-01T05:54:48.460Z,60.74
2023-09-01T05:56:50.090Z,60.35
2023-09-01T05:58:52.955Z,60.78
2023-09-01T06:00:59.066Z,60.79
2023-09-01T06:03:01.756Z,60.30
2023-09-01T06:05:04.634Z,59.36
2023-09-01T06:07:07.088Z,59.41
2023-09-01T06:09:11.477Z,58.76
2023-09-01T06:11:14.056Z,59.47
2023-09-01T06:13:15.862Z,60.04
2023-09-01T06:15:17.610Z,60.69
2023-09-01T06:17:20.931Z,60.63
2023-09-01T06:19:26.103Z,59.75
2023-09-01T06:21:28.185Z,59.43
2023-09-01T06:23:30.063Z,59.18
2023-09-01T06:25:50.341Z,58.83
2023-09-01T06:27:52.156Z,58.25
2023-09-01T06:29:56.490Z,58.23
2023-09-01T06:31:58.205Z,58.77
2023-09-01T06:33:59.904Z,59.34
2023-09-01T06:36:01.625Z,59.00
2023-09-01T06:38:07.419Z,59.04
2023-09-01T06:40:09.712Z,58.50
2023-09-01T06:42:11.595Z,58.01
2023-09-01T06:44:13.439Z,57.68
2023-09-01T06:46:16.104Z,57.13
2023-09-01T06:48:18.197Z,56.51
2023-09-01T06:50:20.745Z,56.13
2023-09-01T06:52:22.517Z,56.98
2023-09-01T06:54:27.065Z,57.82
2023-09-01T06:56:29.041Z,58.89
2023-09-01T06:58:30.656Z,59.31
2023-09-01T07:00:32.796Z,58.67
2023-09-01T07:02:34.758Z,59.21
2023-09-01T07:04:36.495Z,59.92
2023-09-01T07:06:38.115Z,59.86
2023-09-01T07:08:40.134Z,59.22
2023-09-01T07:10:41.898Z,58.32
2023-09-01T07:12:44.875Z,57.85
2023-09-01T07:14:47.443Z,56.65
2023-09-01T07:16:49.128Z,56.02
2023-09-01T07:18:50.829Z,55.50
2023-09-01T07:20:57.531Z,55.18
2023-09-01T07:22:59.294Z,54.82
2023-09-01T07:25:01.086Z,54.43
2023-09-01T07:27:03.618Z,55.89
2023-09-01T07:29:05.621Z,55.99
2023-09-01T07:31:13.940Z,56.65
2023-09-01T07:33:17.178Z,56.75
2023-09-01T07:35:19.081Z,55.36
2023-09-01T07:37:20.799Z,55.78
2023-09-01T07:39:22.590Z,55.66
2023-09-01T07:41:24.323Z,55.53
2023-09-01T07:43:26.044Z,54.19
2023-09-01T07:45:28.614Z,53.95
2023-09-01T07:47:30.417Z,53.22
2023-09-01T07:49:32.076Z,52.04
2023-09-01T07:51:33.935Z,51.71
2023-09-01T07:53:35.724Z,51.46
2023-09-01T07:55:37.429Z,51.36
2023-09-01T07:57:42.155Z,50.47
2023-09-01T07:59:45.325Z,49.94
2023-09-01T08:01:47.570Z,49.86
2023-09-01T08:03:49.482Z,50.73
2023-09-01T08:05:51.205Z,50.88
2023-09-01T08:07:54.632Z,49.80
2023-09-01T08:09:56.420Z,49.30
2023-09-01T08:11:57.997Z,48.59
2023-09-01T08:13:59.608Z,49.10
2023-09-01T08:16:01.291Z,50.40
2023-09-01T08:18:03.965Z,50.08
2023-09-01T08:20:08.243Z,49.90
2023-09-01T08:22:10.323Z,49.77
2023-09-01T08:24:12.588Z,49.22
2023-09-01T08:26:30.177Z,49.04
2023-09-01T08:28:35.349Z,48.59
2023-09-01T08:30:37.207Z,48.44
2023-09-01T08:32:43.800Z,49.89
2023-09-01T08:34:48.035Z,49.79
2023-09-01T08:36:50.022Z,49.02
2023-09-01T08:38:51.724Z,49.28
2023-09-01T08:41:04.518Z,48.59
2023-09-01T08:43:06.711Z,47.51
2023-09-01T08:45:08.989Z,47.05
2023-09-01T08:47:11.764Z,47.31
2023-09-01T08:49:13.609Z,47.25
2023-09-01T08:51:16.199Z,46.46
2023-09-01T08:53:18.178Z,47.69
2023-09-01T08:55:20.322Z,47.15
2023-09-01T08:57:22.994Z,47.33
2023-09-01T08:59:26.361Z,46.41
2023-09-01T09:03:31.029Z,44.80
2023-09-01T09:05:34.177Z,44.76
2023-09-01T09:07:35.850Z,43.63
2023-09-01T09:09:52.190Z,43.73
2023-09-01T09:12:00.852Z,44.08
2023-09-01T09:14:09.867Z,45.10
2023-09-01T09:16:14.774Z,44.36
2023-09-01T09:18:30.494Z,44.70
2023-09-01T09:20:39.359Z,44.72
2023-09-01T09:23:02.551Z,43.59
2023-09-01T09:25:04.808Z,43.51
2023-09-01T09:27:07.718Z,43.89
2023-09-01T09:29:12.769Z,44.86
2023-09-01T09:31:15.756Z,42.54
2023-09-01T09:33:27.543Z,42.37
2023-09-01T09:35:29.348Z,43.39
2023-09-01T09:37:38.121Z,42.94
2023-09-01T09:39:42.653Z,44.18
2023-09-01T09:41:47.219Z,43.93
2023-09-01T09:43:50.509Z,43.51
2023-09-01T09:45:55.836Z,42.29
2023-09-01T09:47:59.914Z,41.88
2023-09-01T09:50:02.342Z,42.00
2023-09-01T09:52:08.681Z,41.58
2023-09-01T09:54:15.210Z,40.57
2023-09-01T09:56:34.907Z,40.68
2023-09-01T09:58:40.930Z,41.23
2023-09-01T10:00:56.832Z,40.96
2023-09-01T10:03:05.238Z,40.38
2023-09-01T10:05:07.649Z,40.08
2023-09-01T10:07:10.832Z,40.19
2023-09-01T10:09:12.713Z,39.17
2023-09-01T10:11:15.662Z,39.97
2023-09-01T10:13:17.773Z,39.57
2023-09-01T10:15:19.595Z,39.65
2023-09-01T10:17:22.998Z,39.04
2023-09-01T10:19:25.434Z,39.22
2023-09-01T10:21:27.314Z,39.38
2023-09-01T10:23:29.103Z,38.71
2023-09-01T10:25:36.118Z,39.23
2023-09-01T10:27:38.638Z,38.92
2023-09-01T10:29:41.745Z,38.91
2023-09-01T10:31:43.723Z,38.10
2023-09-01T10:33:45.494Z,37.67
2023-09-01T10:35:48.986Z,37.17
2023-09-01T10:38:20.182Z,37.08
2023-09-01T10:40:42.210Z,37.23
2023-09-01T10:42:45.484Z,37.07
2023-09-01T10:44:47.148Z,38.04
2023-09-01T10:46:50.739Z,38.65
2023-09-01T10:48:58.045Z,39.13
2023-09-01T10:51:19.143Z,39.08
2023-09-01T10:53:32.786Z,39.04
2023-09-01T10:55:36.251Z,37.81
2023-09-01T10:57:51.503Z,36.74
2023-09-01T10:59:53.523Z,36.60
2023-09-01T11:01:55.444Z,36.17
2023-09-01T11:03:58.670Z,35.99
2023-09-01T11:06:02.200Z,36.72
2023-09-01T11:08:19.079Z,36.85
2023-09-01T11:10:27.334Z,36.06
2023-09-01T11:12:33.107Z,37.47
2023-09-01T11:14:37.199Z,37.00
2023-09-01T11:16:45.385Z,36.75
2023-09-01T11:18:47.380Z,36.52
2023-09-01T11:20:54.414Z,36.45
2023-09-01T11:23:00.695Z,36.46
2023-09-01T11:25:02.392Z,36.40
2023-09-01T11:27:04.804Z,35.78
2023-09-01T11:29:12.358Z,35.31
2023-09-01T11:31:14.091Z,35.38
2023-09-01T11:33:17.185Z,35.51
2023-09-01T11:35:29.010Z,35.54
2023-09-01T11:37:38.774Z,35.34
2023-09-01T11:39:40.507Z,36.04
2023-09-01T11:41:42.626Z,36.29
2023-09-01T11:43:44.423Z,35.77
2023-09-01T11:45:49.932Z,35.88
2023-09-01T11:47:53.505Z,35.98
2023-09-01T11:49:55.168Z,34.90
2023-09-01T11:51:59.995Z,34.45
2023-09-01T11:54:01.657Z,35.05
2023-09-01T11:56:20.655Z,34.84
2023-09-01T11:58:22.516Z,34.82
2023-09-01T12:00:34.355Z,34.30
2023-09-01T12:02:36.088Z,34.70
2023-09-01T12:04:46.401Z,35.52
2023-09-01T12:06:49.211Z,35.31
2023-09-01T12:08:54.372Z,34.80
2023-09-01T12:11:06.919Z,33.48
2023-09-01T12:13:13.139Z,33.10
2023-09-01T12:15:15.239Z,32.78
2023-09-01T12:17:19.078Z,32.91
2023-09-01T12:19:25.702Z,32.45
2023-09-01T12:21:27.344Z,32.34
2023-09-01T12:23:32.571Z,32.85
2023-09-01T12:25:34.217Z,32.09
2023-09-01T12:27:35.920Z,31.87
2023-09-01T12:29:37.656Z,31.89
2023-09-01T12:31:39.567Z,31.92
2023-09-01T12:33:42.000Z,30.46
2023-09-01T12:35:44.059Z,30.81
2023-09-01T12:37:45.834Z,31.05
2023-09-01T12:39:47.532Z,31.51
2023-09-01T12:41:49.207Z,31.88
2023-09-01T12:43:50.952Z,31.11
2023-09-01T12:45:52.839Z,30.97
2023-09-01T12:47:54.646Z,31.36
2023-09-01T12:49:56.870Z,32.85
2023-09-01T12:51:59.145Z,32.89
2023-09-01T12:54:00.807Z,32.54
2023-09-01T12:56:02.639Z,32.58
2023-09-01T12:58:04.558Z,32.86
2023-09-01T13:00:07.002Z,33.01
2023-09-01T13:02:08.658Z,32.76
2023-09-01T13:04:10.462Z,33.11
2023-09-01T13:06:12.381Z,33.12
2023-09-01T13:08:14.024Z,32.50
2023-09-01T13:10:20.019Z,32.13
2023-09-01T13:12:21.772Z,32.09
2023-09-01T13:14:23.360Z,32.00
2023-09-01T13:16:29.907Z,33.08
2023-09-01T13:18:31.602Z,32.84
2023-09-01T13:20:33.235Z,32.69
2023-09-01T13:22:37.237Z,32.22
2023-09-01T13:24:40.061Z,32.14
2023-09-01T13:26:41.859Z,34.00
2023-09-01T13:28:44.007Z,34.76
2023-09-01T13:30:45.776Z,31.51
2023-09-01T13:32:47.840Z,30.24
2023-09-01T13:34:49.670Z,31.12
2023-09-01T13:36:51.490Z,31.48
2023-09-01T13:38:55.838Z,31.26
2023-09-01T13:40:57.681Z,29.57
2023-09-01T13:42:59.365Z,29.16
2023-09-01T13:45:01.407Z,28.86
2023-09-01T13:47:03.138Z,31.22
2023-09-01T13:49:08.712Z,28.69
2023-09-01T13:51:10.480Z,29.13
2023-09-01T13:53:12.261Z,28.98
2023-09-01T13:55:14.078Z,28.75
2023-09-01T13:57:18.593Z,28.73
2023-09-01T13:59:20.472Z,29.40
2023-09-01T14:01:22.269Z,30.38
2023-09-01T14:03:24.254Z,30.59
2023-09-01T14:05:26.051Z,30.99
2023-09-01T14:07:27.808Z,31.02
2023-09-01T14:09:29.955Z,31.27
2023-09-01T14:11:31.909Z,31.00
2023-09-01T14:13:37.113Z,30.57
2023-09-01T14:15:38.800Z,30.99
2023-09-01T14:17:41.083Z,31.17
2023-09-01T14:19:42.805Z,31.24
2023-09-01T14:21:44.710Z,31.94
2023-09-01T14:23:48.274Z,32.12
2023-09-01T14:25:52.382Z,33.07
2023-09-01T14:27:56.097Z,33.15
2023-09-01T14:29:57.751Z,33.37
2023-09-01T14:31:59.602Z,33.56
2023-09-01T14:34:01.435Z,33.33
2023-09-01T14:36:03.210Z,33.12
2023-09-01T14:38:08.257Z,33.96
2023-09-01T14:40:10.829Z,34.76
2023-09-01T14:42:12.508Z,34.79
2023-09-01T14:44:14.143Z,34.50
2023-09-01T14:46:18.524Z,34.84
2023-09-01T14:48:20.410Z,35.63
2023-09-01T14:50:25.572Z,35.37
2023-09-01T14:52:27.353Z,34.82
2023-09-01T14:54:29.058Z,34.73
2023-09-01T14:56:30.770Z,34.79
2023-09-01T14:58:32.652Z,34.37
2023-09-01T15:00:34.355Z,33.78
2023-09-01T15:02:37.754Z,33.16
2023-09-01T15:04:39.587Z,33.48
2023-09-01T15:06:41.319Z,33.12
2023-09-01T15:08:43.037Z,32.83
2023-09-01T15:10:44.939Z,34.25
2023-09-01T15:12:46.658Z,35.28
2023-09-01T15:14:48.304Z,35.42
2023-09-01T15:16:50.106Z,36.14
2023-09-01T15:18:51.813Z,37.01
2023-09-01T15:21:07.619Z,37.18
2023-09-01T15:23:09.721Z,37.11
2023-09-01T15:25:11.656Z,37.12
2023-09-01T15:27:13.444Z,37.57
2023-09-01T15:29:15.241Z,37.84
2023-09-01T15:31:17.141Z,38.28
2023-09-01T15:33:19.037Z,38.60
2023-09-01T15:35:27.006Z,38.72
2023-09-01T15:37:31.312Z,38.72
2023-09-01T15:39:34.239Z,38.82
2023-09-01T15:41:35.957Z,38.60
2023-09-01T15:43:37.869Z,39.04
2023-09-01T15:45:45.911Z,39.66
2023-09-01T15:47:47.795Z,38.71
2023-09-01T15:49:50.003Z,38.62
2023-09-01T15:51:51.659Z,39.04
2023-09-01T15:53:53.346Z,39.63
2023-09-01T15:55:56.308Z,39.78
2023-09-01T15:57:58.696Z,40.09
2023-09-01T16:00:00.712Z,39.70
2023-09-01T16:02:02.427Z,40.22
2023-09-01T16:04:04.752Z,40.12
2023-09-01T16:06:06.912Z,40.41
2023-09-01T16:08:08.666Z,40.13
2023-09-01T16:10:11.543Z,40.58
2023-09-01T16:12:13.244Z,40.41
2023-09-01T16:17:30.549Z,40.35
2023-09-01T16:19:32.296Z,40.47
2023-09-01T16:21:34.177Z,40.67
2023-09-01T16:23:35.988Z,40.65
2023-09-01T16:25:37.785Z,40.62
2023-09-01T16:27:41.813Z,40.63
2023-09-01T16:29:46.712Z,40.92
2023-09-01T16:31:48.532Z,41.06
2023-09-01T16:33:52.710Z,41.06
2023-09-01T16:35:58.819Z,41.07
2023-09-01T16:38:00.513Z,40.94
2023-09-01T16:40:06.910Z,41.25
2023-09-01T16:42:08.658Z,41.66
2023-09-01T16:44:11.696Z,41.95
2023-09-01T16:46:13.384Z,42.42
2023-09-01T16:48:15.281Z,42.55
2023-09-01T16:50:17.843Z,42.72
2023-09-01T16:52:20.333Z,42.75
2023-09-01T16:54:22.056Z,42.53
2023-09-01T16:56:23.800Z,42.54
2023-09-01T16:58:27.431Z,42.62
2023-09-01T17:00:29.323Z,42.42
2023-09-01T17:02:31.060Z,42.57
2023-09-01T17:04:33.697Z,43.17
2023-09-01T17:06:35.412Z,43.18
2023-09-01T17:08:47.432Z,43.17
2023-09-01T17:10:50.491Z,42.96
2023-09-01T17:12:53.009Z,43.40
2023-09-01T17:14:54.800Z,43.37
2023-09-01T17:16:56.818Z,43.58
2023-09-01T17:18:58.501Z,43.75
2023-09-01T17:21:00.358Z,43.75
2023-09-01T17:23:04.457Z,43.93
2023-09-01T17:25:06.505Z,43.96
2023-09-01T17:27:08.277Z,44.02
2023-09-01T17:29:11.634Z,44.20
2023-09-01T17:31:15.541Z,44.27
2023-09-01T17:33:17.379Z,44.07
2023-09-01T17:35:19.349Z,44.18
2023-09-01T17:37:21.472Z,44.58
2023-09-01T17:39:23.194Z,44.67
2023-09-01T17:41:39.785Z,44.84
2023-09-01T17:43:41.545Z,45.24
2023-09-01T17:45:43.271Z,44.73
2023-09-01T17:47:45.013Z,44.89
2023-09-01T17:49:46.801Z,44.71
2023-09-01T17:51:48.616Z,44.74
2023-09-01T17:53:50.273Z,44.60
2023-09-01T17:55:52.932Z,44.34
2023-09-01T17:57:54.868Z,44.58
2023-09-01T17:59:57.102Z,44.25
2023-09-01T18:01:58.852Z,44.32
2023-09-01T18:04:00.762Z,44.36
2023-09-01T18:06:02.754Z,44.57
2023-09-01T18:08:06.797Z,45.15
2023-09-01T18:10:10.901Z,45.20
2023-09-01T18:12:12.630Z,45.32
2023-09-01T18:14:15.528Z,45.10
2023-09-01T18:16:18.552Z,45.04
2023-09-01T18:18:20.371Z,45.19
2023-09-01T18:20:22.870Z,45.47
2023-09-01T18:22:24.714Z,45.21
2023-09-01T18:24:27.749Z,44.81
2023-09-01T18:26:31.633Z,45.27
2023-09-01T18:28:33.360Z,45.59
2023-09-01T18:30:35.307Z,45.43
2023-09-01T18:32:37.304Z,45.70
2023-09-01T18:34:40.028Z,45.40
2023-09-01T18:36:41.843Z,45.63
2023-09-01T18:38:44.088Z,46.13
2023-09-01T18:40:48.208Z,46.23
2023-09-01T18:42:53.008Z,45.86
2023-09-01T18:44:54.971Z,45.93
2023-09-01T18:46:56.764Z,45.75
2023-09-01T18:49:02.315Z,46.08
2023-09-01T18:51:06.437Z,45.81
2023-09-01T18:53:08.595Z,45.72
2023-09-01T18:55:15.272Z,45.54
2023-09-01T18:57:19.269Z,46.29
2023-09-01T18:59:21.637Z,46.67
2023-09-01T19:01:27.751Z,46.56
2023-09-01T19:03:30.884Z,46.75
2023-09-01T19:05:37.457Z,46.97
2023-09-01T19:07:39.220Z,47.08
2023-09-01T19:09:45.065Z,46.76
2023-09-01T19:11:47.121Z,47.54
2023-09-01T19:14:00.331Z,47.59
2023-09-01T19:16:03.944Z,47.61
2023-09-01T19:18:15.879Z,47.51
2023-09-01T19:20:26.566Z,47.78
2023-09-01T19:22:28.330Z,47.68
2023-09-01T19:24:31.564Z,47.44
2023-09-01T19:26:33.396Z,47.36
2023-09-01T19:28:38.473Z,46.91
2023-09-01T19:30:44.731Z,47.18
2023-09-01T19:32:47.983Z,47.12
2023-09-01T19:34:49.860Z,47.24
2023-09-01T19:36:52.529Z,47.66
2023-09-01T19:38:54.274Z,47.84
2023-09-01T19:40:56.988Z,47.70
2023-09-01T19:43:16.808Z,48.08
2023-09-01T19:45:29.221Z,47.72
2023-09-01T19:47:31.113Z,47.96
2023-09-01T19:49:33.123Z,47.90
2023-09-01T19:51:38.302Z,47.90
2023-09-01T19:53:41.823Z,47.92
2023-09-01T19:55:44.149Z,48.15
2023-09-01T19:57:46.006Z,47.79
2023-09-01T19:59:47.618Z,48.08
2023-09-01T20:01:51.074Z,48.01
2023-09-01T20:03:53.466Z,48.28
2023-09-01T20:05:56.931Z,48.04
2023-09-01T20:07:58.927Z,48.05
2023-09-01T20:10:00.853Z,48.15
2023-09-01T20:12:02.502Z,48.40
2023-09-01T20:14:05.940Z,48.47
2023-09-01T20:16:09.777Z,48.43
2023-09-01T20:18:16.624Z,48.44
2023-09-01T20:20:18.754Z,48.50
2023-09-01T20:22:22.730Z,49.00
2023-09-01T20:24:24.406Z,48.74
2023-09-01T20:26:27.562Z,48.51
2023-09-01T20:28:29.386Z,48.52
2023-09-01T20:30:31.629Z,48.85
2023-09-01T20:32:34.871Z,48.99
2023-09-01T20:34:37.253Z,48.75
2023-09-01T20:36:39.446Z,49.09
2023-09-01T20:38:42.836Z,49.11
2023-09-01T20:40:44.602Z,49.10
2023-09-01T20:42:46.343Z,49.03
2023-09-01T20:44:48.011Z,49.19
2023-09-01T20:46:49.750Z,48.87
2023-09-01T20:48:52.637Z,49.31
2023-09-01T20:50:54.484Z,49.51
2023-09-01T20:52:56.202Z,49.43
2023-09-01T20:54:57.810Z,49.35
2023-09-01T20:57:03.037Z,49.05
2023-09-01T20:59:04.764Z,48.95
2023-09-01T21:01:06.493Z,48.96
2023-09-01T21:03:08.563Z,49.42
2023-09-01T21:05:10.929Z,48.93
2023-09-01T21:07:12.598Z,49.04
2023-09-01T21:09:14.866Z,49.29
2023-09-01T21:11:16.785Z,49.58
2023-09-01T21:13:18.695Z,49.19
2023-09-01T21:15:20.667Z,49.21
2023-09-01T21:17:22.284Z,49.29
2023-09-01T21:19:23.898Z,49.12
2023-09-01T21:21:25.745Z,49.52
2023-09-01T21:23:27.534Z,49.39
2023-09-01T21:25:29.215Z,49.44
2023-09-01T21:27:31.127Z,49.58
2023-09-01T21:29:33.148Z,49.17
2023-09-01T21:31:34.967Z,49.09
2023-09-01T21:33:36.899Z,49.70
2023-09-01T21:35:39.847Z,50.61
2023-09-01T21:37:41.944Z,50.50
2023-09-01T21:39:44.110Z,49.98
2023-09-01T21:41:45.955Z,50.09
2023-09-01T21:43:47.613Z,50.11
2023-09-01T21:45:49.332Z,49.97
2023-09-01T21:47:52.532Z,49.95
2023-09-01T21:49:54.567Z,50.32
2023-09-01T21:51:56.247Z,49.97
2023-09-01T21:54:01.040Z,50.11
2023-09-01T21:56:06.372Z,50.12
2023-09-01T21:58:08.294Z,50.20
2023-09-01T22:00:10.198Z,50.19
2023-09-01T22:02:12.899Z,50.22
2023-09-01T22:04:15.746Z,50.30
2023-09-01T22:06:36.106Z,50.03
2023-09-01T22:08:37.998Z,50.44
2023-09-01T22:10:39.712Z,50.68
2023-09-01T22:12:42.251Z,50.48
2023-09-01T22:14:44.195Z,50.65
2023-09-01T22:16:45.851Z,50.47
2023-09-01T22:18:47.581Z,50.98
2023-09-01T22:20:49.376Z,51.69
2023-09-01T22:22:51.816Z,52.28
2023-09-01T22:24:53.526Z,52.37
2023-09-01T22:26:57.944Z,52.08
2023-09-01T22:28:59.651Z,52.28
2023-09-01T22:31:01.550Z,52.11
2023-09-01T22:33:04.091Z,52.30
2023-09-01T22:35:08.075Z,52.67
2023-09-01T22:37:09.821Z,52.62
2023-09-01T22:39:11.860Z,52.87
2023-09-01T22:41:14.396Z,52.40
2023-09-01T22:43:19.983Z,52.40
2023-09-01T22:45:21.842Z,52.23
2023-09-01T22:47:26.450Z,52.18
2023-09-01T22:49:28.246Z,52.02
2023-09-01T22:51:30.214Z,52.04
2023-09-01T22:53:32.069Z,52.11
2023-09-01T22:55:36.417Z,52.24
2023-09-01T22:57:38.604Z,52.01
2023-09-01T22:59:40.599Z,51.70
2023-09-01T23:01:42.380Z,51.96
2023-09-01T23:03:44.157Z,51.48
2023-09-01T23:05:46.251Z,51.84
2023-09-01T23:07:47.997Z,51.86
2023-09-01T23:09:49.774Z,51.74
2023-09-01T23:11:52.420Z,51.74
2023-09-01T23:13:54.286Z,51.87
2023-09-01T23:15:59.487Z,51.82
2023-09-01T23:18:01.327Z,52.02
2023-09-01T23:20:03.837Z,52.48
2023-09-01T23:22:05.747Z,52.64
2023-09-01T23:24:07.844Z,52.58
2023-09-01T23:26:09.603Z,52.34
2023-09-01T23:28:11.589Z,52.11
2023-09-01T23:30:16.772Z,52.13
2023-09-01T23:32:18.631Z,52.14
2023-09-01T23:34:20.505Z,51.86
2023-09-01T23:36:22.182Z,52.08
2023-09-01T23:38:23.978Z,51.91
2023-09-01T23:40:26.139Z,51.73
2023-09-01T23:42:28.214Z,51.73
2023-09-01T23:44:30.097Z,51.79
2023-09-01T23:46:31.897Z,51.97
2023-09-01T23:48:34.803Z,52.21
2023-09-01T23:50:36.596Z,52.13
2023-09-01T23:52:38.892Z,52.12
2023-09-01T23:54:40.763Z,52.39
2023-09-01T23:56:43.485Z,52.85
2023-09-01T23:58:45.335Z,52.79
